sensor_id;sensor_type;location;lat;lon;timestamp;temperature;humidity
40868;DHT22;26586;50.708;22.412;2022-10-30T00:01:35;19.60;67.50
40868;DHT22;26586;50.708;22.412;2022-10-30T00:04:20;19.60;67.60
40868;DHT22;26586;50.708;22.412;2022-10-30T00:06:47;19.60;67.20
40868;DHT22;26586;50.708;22.412;2022-10-30T00:09:13;19.60;66.90
40868;DHT22;26586;50.708;22.412;2022-10-30T00:11:40;19.60;67.20
40868;DHT22;26586;50.708;22.412;2022-10-30T00:14:07;19.60;67.10
40868;DHT22;26586;50.708;22.412;2022-10-30T00:16:33;19.50;66.90
40868;DHT22;26586;50.708;22.412;2022-10-30T00:19:00;19.60;67.50
40868;DHT22;26586;50.708;22.412;2022-10-30T00:21:26;19.60;67.40
40868;DHT22;26586;50.708;22.412;2022-10-30T00:24:10;19.60;67.20
40868;DHT22;26586;50.708;22.412;2022-10-30T00:26:37;19.50;67.00
40868;DHT22;26586;50.708;22.412;2022-10-30T00:29:21;19.50;67.00
40868;DHT22;26586;50.708;22.412;2022-10-30T00:31:52;19.50;66.90
40868;DHT22;26586;50.708;22.412;2022-10-30T00:34:18;19.50;67.20
40868;DHT22;26586;50.708;22.412;2022-10-30T00:36:44;19.50;67.20
40868;DHT22;26586;50.708;22.412;2022-10-30T00:39:11;19.50;67.40
40868;DHT22;26586;50.708;22.412;2022-10-30T00:41:37;19.50;67.30
40868;DHT22;26586;50.708;22.412;2022-10-30T00:44:31;19.50;67.80
40868;DHT22;26586;50.708;22.412;2022-10-30T00:50:25;19.50;67.70
40868;DHT22;26586;50.708;22.412;2022-10-30T00:53:09;19.50;68.10
40868;DHT22;26586;50.708;22.412;2022-10-30T00:55:44;19.50;68.00
40868;DHT22;26586;50.708;22.412;2022-10-30T00:58:35;19.40;68.00
40868;DHT22;26586;50.708;22.412;2022-10-30T01:01:24;19.50;68.10
40868;DHT22;26586;50.708;22.412;2022-10-30T01:04:10;19.40;68.10
40868;DHT22;26586;50.708;22.412;2022-10-30T01:06:56;19.40;67.90
40868;DHT22;26586;50.708;22.412;2022-10-30T01:09:23;19.40;67.80
40868;DHT22;26586;50.708;22.412;2022-10-30T01:11:49;19.40;67.30
40868;DHT22;26586;50.708;22.412;2022-10-30T01:14:40;19.40;66.90
40868;DHT22;26586;50.708;22.412;2022-10-30T01:36:58;19.40;68.20
40868;DHT22;26586;50.708;22.412;2022-10-30T01:39:28;19.40;67.60
40868;DHT22;26586;50.708;22.412;2022-10-30T01:41:57;19.40;67.80
40868;DHT22;26586;50.708;22.412;2022-10-30T01:44:31;19.40;67.60
40868;DHT22;26586;50.708;22.412;2022-10-30T01:47:29;19.40;67.70
40868;DHT22;26586;50.708;22.412;2022-10-30T02:01:31;19.30;67.50
40868;DHT22;26586;50.708;22.412;2022-10-30T02:04:01;19.30;67.50
40868;DHT22;26586;50.708;22.412;2022-10-30T02:06:27;19.30;67.20
40868;DHT22;26586;50.708;22.412;2022-10-30T02:08:56;19.30;67.10
40868;DHT22;26586;50.708;22.412;2022-10-30T02:11:24;19.30;67.30
40868;DHT22;26586;50.708;22.412;2022-10-30T02:13:53;19.30;67.50
40868;DHT22;26586;50.708;22.412;2022-10-30T02:16:20;19.30;67.00
40868;DHT22;26586;50.708;22.412;2022-10-30T02:18:47;19.30;67.70
40868;DHT22;26586;50.708;22.412;2022-10-30T02:21:14;19.30;67.60
40868;DHT22;26586;50.708;22.412;2022-10-30T02:23:40;19.30;67.00
40868;DHT22;26586;50.708;22.412;2022-10-30T02:26:06;19.30;67.70
40868;DHT22;26586;50.708;22.412;2022-10-30T02:28:32;19.20;67.60
40868;DHT22;26586;50.708;22.412;2022-10-30T02:30:58;19.30;67.40
40868;DHT22;26586;50.708;22.412;2022-10-30T02:33:25;19.30;67.60
40868;DHT22;26586;50.708;22.412;2022-10-30T02:35:51;19.30;67.70
40868;DHT22;26586;50.708;22.412;2022-10-30T02:38:17;19.30;67.50
40868;DHT22;26586;50.708;22.412;2022-10-30T02:41:02;19.30;67.80
40868;DHT22;26586;50.708;22.412;2022-10-30T02:43:28;19.30;67.80
40868;DHT22;26586;50.708;22.412;2022-10-30T02:45:54;19.30;67.80
40868;DHT22;26586;50.708;22.412;2022-10-30T02:48:21;19.30;67.60
40868;DHT22;26586;50.708;22.412;2022-10-30T02:50:47;19.30;67.80
40868;DHT22;26586;50.708;22.412;2022-10-30T02:53:32;19.30;67.50
40868;DHT22;26586;50.708;22.412;2022-10-30T02:56:06;19.30;67.50
40868;DHT22;26586;50.708;22.412;2022-10-30T02:58:33;19.20;67.20
40868;DHT22;26586;50.708;22.412;2022-10-30T03:01:26;19.20;67.60
40868;DHT22;26586;50.708;22.412;2022-10-30T03:03:52;19.20;67.60
40868;DHT22;26586;50.708;22.412;2022-10-30T03:06:19;19.20;67.70
40868;DHT22;26586;50.708;22.412;2022-10-30T03:08:45;19.20;67.30
40868;DHT22;26586;50.708;22.412;2022-10-30T03:11:14;19.20;67.40
40868;DHT22;26586;50.708;22.412;2022-10-30T03:13:42;19.20;67.40
40868;DHT22;26586;50.708;22.412;2022-10-30T03:16:17;19.20;67.30
40868;DHT22;26586;50.708;22.412;2022-10-30T03:18:44;19.20;67.40
40868;DHT22;26586;50.708;22.412;2022-10-30T03:21:16;19.20;68.40
40868;DHT22;26586;50.708;22.412;2022-10-30T03:23:43;19.20;67.40
40868;DHT22;26586;50.708;22.412;2022-10-30T03:26:09;19.20;67.10
40868;DHT22;26586;50.708;22.412;2022-10-30T03:28:35;19.20;67.70
40868;DHT22;26586;50.708;22.412;2022-10-30T03:31:20;19.20;67.70
40868;DHT22;26586;50.708;22.412;2022-10-30T03:33:47;19.20;67.80
40868;DHT22;26586;50.708;22.412;2022-10-30T03:36:31;19.20;68.80
40868;DHT22;26586;50.708;22.412;2022-10-30T03:38:57;19.20;68.40
40868;DHT22;26586;50.708;22.412;2022-10-30T03:41:23;19.20;68.30
40868;DHT22;26586;50.708;22.412;2022-10-30T03:43:50;19.20;68.20
40868;DHT22;26586;50.708;22.412;2022-10-30T03:46:16;19.20;68.20
40868;DHT22;26586;50.708;22.412;2022-10-30T03:48:42;19.20;68.20
40868;DHT22;26586;50.708;22.412;2022-10-30T03:51:27;19.20;68.40
40868;DHT22;26586;50.708;22.412;2022-10-30T03:53:53;19.20;68.20
40868;DHT22;26586;50.708;22.412;2022-10-30T03:56:19;19.20;68.10
40868;DHT22;26586;50.708;22.412;2022-10-30T03:58:45;19.20;68.20
40868;DHT22;26586;50.708;22.412;2022-10-30T04:01:30;19.20;68.30
40868;DHT22;26586;50.708;22.412;2022-10-30T04:03:56;19.20;68.20
40868;DHT22;26586;50.708;22.412;2022-10-30T04:06:41;19.20;68.10
40868;DHT22;26586;50.708;22.412;2022-10-30T04:09:26;19.20;68.00
40868;DHT22;26586;50.708;22.412;2022-10-30T04:11:52;19.20;67.90
40868;DHT22;26586;50.708;22.412;2022-10-30T04:14:18;19.20;68.10
40868;DHT22;26586;50.708;22.412;2022-10-30T04:16:44;19.20;68.10
40868;DHT22;26586;50.708;22.412;2022-10-30T04:19:10;19.20;67.80
40868;DHT22;26586;50.708;22.412;2022-10-30T04:21:37;19.10;67.40
40868;DHT22;26586;50.708;22.412;2022-10-30T04:24:03;19.20;67.60
40868;DHT22;26586;50.708;22.412;2022-10-30T04:26:29;19.10;68.20
40868;DHT22;26586;50.708;22.412;2022-10-30T04:28:55;19.10;67.50
40868;DHT22;26586;50.708;22.412;2022-10-30T04:31:21;19.10;67.40
40868;DHT22;26586;50.708;22.412;2022-10-30T04:34:06;19.10;67.20
40868;DHT22;26586;50.708;22.412;2022-10-30T04:36:32;19.10;67.00
40868;DHT22;26586;50.708;22.412;2022-10-30T04:38:59;19.10;67.30
40868;DHT22;26586;50.708;22.412;2022-10-30T04:41:27;19.10;67.00
40868;DHT22;26586;50.708;22.412;2022-10-30T04:43:53;19.10;67.50
40868;DHT22;26586;50.708;22.412;2022-10-30T04:46:19;19.10;66.80
40868;DHT22;26586;50.708;22.412;2022-10-30T04:48:45;19.10;67.00
40868;DHT22;26586;50.708;22.412;2022-10-30T04:51:30;19.10;67.40
40868;DHT22;26586;50.708;22.412;2022-10-30T04:53:57;19.10;67.40
40868;DHT22;26586;50.708;22.412;2022-10-30T04:56:23;19.10;67.00
40868;DHT22;26586;50.708;22.412;2022-10-30T04:58:49;19.10;66.50
40868;DHT22;26586;50.708;22.412;2022-10-30T05:01:16;19.10;66.40
40868;DHT22;26586;50.708;22.412;2022-10-30T05:03:42;19.10;66.40
40868;DHT22;26586;50.708;22.412;2022-10-30T05:06:28;19.10;66.50
40868;DHT22;26586;50.708;22.412;2022-10-30T05:08:55;19.10;66.60
40868;DHT22;26586;50.708;22.412;2022-10-30T05:11:22;19.10;66.00
40868;DHT22;26586;50.708;22.412;2022-10-30T05:13:48;19.10;66.50
40868;DHT22;26586;50.708;22.412;2022-10-30T05:16:14;19.10;66.50
40868;DHT22;26586;50.708;22.412;2022-10-30T05:18:41;19.00;66.40
40868;DHT22;26586;50.708;22.412;2022-10-30T05:21:07;19.10;66.60
40868;DHT22;26586;50.708;22.412;2022-10-30T05:23:34;19.10;66.60
40868;DHT22;26586;50.708;22.412;2022-10-30T05:26:18;19.10;66.90
40868;DHT22;26586;50.708;22.412;2022-10-30T05:28:44;19.10;66.70
40868;DHT22;26586;50.708;22.412;2022-10-30T05:31:11;19.10;66.40
40868;DHT22;26586;50.708;22.412;2022-10-30T05:33:37;19.10;66.30
40868;DHT22;26586;50.708;22.412;2022-10-30T05:36:03;19.10;66.80
40868;DHT22;26586;50.708;22.412;2022-10-30T05:38:30;19.10;66.80
40868;DHT22;26586;50.708;22.412;2022-10-30T05:40:56;19.10;66.40
40868;DHT22;26586;50.708;22.412;2022-10-30T05:43:22;19.10;66.70
40868;DHT22;26586;50.708;22.412;2022-10-30T05:45:48;19.10;66.70
40868;DHT22;26586;50.708;22.412;2022-10-30T05:48:15;19.10;66.80
40868;DHT22;26586;50.708;22.412;2022-10-30T05:50:41;19.10;66.70
40868;DHT22;26586;50.708;22.412;2022-10-30T05:53:08;19.10;67.30
40868;DHT22;26586;50.708;22.412;2022-10-30T05:55:35;19.10;68.20
40868;DHT22;26586;50.708;22.412;2022-10-30T05:58:03;19.10;67.90
40868;DHT22;26586;50.708;22.412;2022-10-30T06:00:32;19.10;67.80
40868;DHT22;26586;50.708;22.412;2022-10-30T06:03:08;19.10;67.80
40868;DHT22;26586;50.708;22.412;2022-10-30T06:05:35;19.20;68.00
40868;DHT22;26586;50.708;22.412;2022-10-30T06:08:04;19.20;68.20
40868;DHT22;26586;50.708;22.412;2022-10-30T06:10:48;19.20;68.30
40868;DHT22;26586;50.708;22.412;2022-10-30T06:13:15;19.20;68.30
40868;DHT22;26586;50.708;22.412;2022-10-30T06:15:41;19.20;67.80
40868;DHT22;26586;50.708;22.412;2022-10-30T06:18:07;19.20;67.70
40868;DHT22;26586;50.708;22.412;2022-10-30T06:20:33;19.20;67.90
40868;DHT22;26586;50.708;22.412;2022-10-30T06:23:05;19.20;68.50
40868;DHT22;26586;50.708;22.412;2022-10-30T06:25:34;19.30;67.70
40868;DHT22;26586;50.708;22.412;2022-10-30T06:28:00;19.30;67.60
40868;DHT22;26586;50.708;22.412;2022-10-30T06:30:45;19.20;68.00
40868;DHT22;26586;50.708;22.412;2022-10-30T06:33:11;19.30;68.50
40868;DHT22;26586;50.708;22.412;2022-10-30T06:35:55;19.30;68.40
40868;DHT22;26586;50.708;22.412;2022-10-30T06:38:22;19.30;68.20
40868;DHT22;26586;50.708;22.412;2022-10-30T06:40:48;19.30;68.40
40868;DHT22;26586;50.708;22.412;2022-10-30T06:43:14;19.30;66.40
40868;DHT22;26586;50.708;22.412;2022-10-30T06:45:41;19.30;65.40
40868;DHT22;26586;50.708;22.412;2022-10-30T06:48:08;19.30;65.20
40868;DHT22;26586;50.708;22.412;2022-10-30T06:50:34;19.20;65.20
40868;DHT22;26586;50.708;22.412;2022-10-30T06:53:00;19.20;65.30
40868;DHT22;26586;50.708;22.412;2022-10-30T06:55:52;19.20;65.60
40868;DHT22;26586;50.708;22.412;2022-10-30T06:58:18;19.10;65.60
40868;DHT22;26586;50.708;22.412;2022-10-30T07:00:44;19.10;65.80
40868;DHT22;26586;50.708;22.412;2022-10-30T07:03:11;19.10;66.00
40868;DHT22;26586;50.708;22.412;2022-10-30T07:05:37;19.00;66.10
40868;DHT22;26586;50.708;22.412;2022-10-30T07:08:22;19.00;67.20
40868;DHT22;26586;50.708;22.412;2022-10-30T07:11:06;19.00;68.30
40868;DHT22;26586;50.708;22.412;2022-10-30T07:13:33;19.00;68.40
40868;DHT22;26586;50.708;22.412;2022-10-30T07:16:17;19.10;68.80
40868;DHT22;26586;50.708;22.412;2022-10-30T07:18:43;19.10;69.00
40868;DHT22;26586;50.708;22.412;2022-10-30T07:21:09;19.20;69.10
40868;DHT22;26586;50.708;22.412;2022-10-30T07:23:36;19.20;69.10
40868;DHT22;26586;50.708;22.412;2022-10-30T07:26:02;19.20;68.90
40868;DHT22;26586;50.708;22.412;2022-10-30T07:28:28;19.20;69.10
40868;DHT22;26586;50.708;22.412;2022-10-30T07:31:14;19.30;69.20
40868;DHT22;26586;50.708;22.412;2022-10-30T07:33:43;19.30;69.20
40868;DHT22;26586;50.708;22.412;2022-10-30T07:36:09;19.30;68.60
40868;DHT22;26586;50.708;22.412;2022-10-30T07:38:35;19.30;68.60
40868;DHT22;26586;50.708;22.412;2022-10-30T07:41:02;19.30;68.40
40868;DHT22;26586;50.708;22.412;2022-10-30T07:43:28;19.40;68.30
40868;DHT22;26586;50.708;22.412;2022-10-30T07:45:54;19.30;68.40
40868;DHT22;26586;50.708;22.412;2022-10-30T07:48:22;19.40;68.40
40868;DHT22;26586;50.708;22.412;2022-10-30T07:50:48;19.40;68.50
40868;DHT22;26586;50.708;22.412;2022-10-30T07:53:32;19.40;68.20
40868;DHT22;26586;50.708;22.412;2022-10-30T07:55:58;19.40;67.80
40868;DHT22;26586;50.708;22.412;2022-10-30T07:58:24;19.40;67.80
40868;DHT22;26586;50.708;22.412;2022-10-30T08:00:51;19.40;67.60
40868;DHT22;26586;50.708;22.412;2022-10-30T08:03:17;19.40;67.70
40868;DHT22;26586;50.708;22.412;2022-10-30T08:06:01;19.40;67.60
40868;DHT22;26586;50.708;22.412;2022-10-30T08:08:28;19.40;68.00
40868;DHT22;26586;50.708;22.412;2022-10-30T08:10:54;19.40;68.30
40868;DHT22;26586;50.708;22.412;2022-10-30T08:13:20;19.40;68.10
40868;DHT22;26586;50.708;22.412;2022-10-30T08:15:46;19.50;68.20
40868;DHT22;26586;50.708;22.412;2022-10-30T08:18:14;19.40;68.70
40868;DHT22;26586;50.708;22.412;2022-10-30T08:20:40;19.40;68.50
40868;DHT22;26586;50.708;22.412;2022-10-30T08:23:07;19.50;68.70
40868;DHT22;26586;50.708;22.412;2022-10-30T08:25:33;19.50;68.80
40868;DHT22;26586;50.708;22.412;2022-10-30T08:28:02;19.50;68.80
40868;DHT22;26586;50.708;22.412;2022-10-30T08:30:31;19.50;68.20
40868;DHT22;26586;50.708;22.412;2022-10-30T08:33:04;19.50;68.60
40868;DHT22;26586;50.708;22.412;2022-10-30T08:35:51;19.50;68.40
40868;DHT22;26586;50.708;22.412;2022-10-30T08:38:18;19.50;68.50
40868;DHT22;26586;50.708;22.412;2022-10-30T08:40:52;19.50;68.00
40868;DHT22;26586;50.708;22.412;2022-10-30T08:43:25;19.50;68.20
40868;DHT22;26586;50.708;22.412;2022-10-30T08:45:51;19.50;68.30
40868;DHT22;26586;50.708;22.412;2022-10-30T08:48:21;19.50;68.20
40868;DHT22;26586;50.708;22.412;2022-10-30T08:51:05;19.50;68.30
40868;DHT22;26586;50.708;22.412;2022-10-30T08:53:50;19.50;68.50
40868;DHT22;26586;50.708;22.412;2022-10-30T08:56:17;19.50;68.10
40868;DHT22;26586;50.708;22.412;2022-10-30T08:58:46;19.50;67.90
40868;DHT22;26586;50.708;22.412;2022-10-30T09:01:16;19.50;68.30
40868;DHT22;26586;50.708;22.412;2022-10-30T09:03:45;19.50;68.50
40868;DHT22;26586;50.708;22.412;2022-10-30T09:06:14;19.50;68.10
40868;DHT22;26586;50.708;22.412;2022-10-30T09:08:40;19.50;68.00
40868;DHT22;26586;50.708;22.412;2022-10-30T09:11:06;19.50;67.80
40868;DHT22;26586;50.708;22.412;2022-10-30T09:13:51;19.50;67.60
40868;DHT22;26586;50.708;22.412;2022-10-30T09:16:17;19.50;67.90
40868;DHT22;26586;50.708;22.412;2022-10-30T09:19:05;19.50;67.80
40868;DHT22;26586;50.708;22.412;2022-10-30T09:21:34;19.50;67.50
40868;DHT22;26586;50.708;22.412;2022-10-30T09:24:03;19.40;67.80
40868;DHT22;26586;50.708;22.412;2022-10-30T09:26:51;19.50;67.60
40868;DHT22;26586;50.708;22.412;2022-10-30T09:29:17;19.40;67.70
40868;DHT22;26586;50.708;22.412;2022-10-30T09:31:43;19.40;68.00
40868;DHT22;26586;50.708;22.412;2022-10-30T09:34:10;19.50;67.60
40868;DHT22;26586;50.708;22.412;2022-10-30T09:36:36;19.40;67.90
40868;DHT22;26586;50.708;22.412;2022-10-30T09:39:20;19.40;67.90
40868;DHT22;26586;50.708;22.412;2022-10-30T09:57:07;19.40;68.00
40868;DHT22;26586;50.708;22.412;2022-10-30T09:59:46;19.40;68.00
40868;DHT22;26586;50.708;22.412;2022-10-30T10:05:38;19.40;68.00
40868;DHT22;26586;50.708;22.412;2022-10-30T10:08:11;19.50;68.40
40868;DHT22;26586;50.708;22.412;2022-10-30T10:10:44;19.40;68.70
40868;DHT22;26586;50.708;22.412;2022-10-30T10:13:34;19.40;68.80
40868;DHT22;26586;50.708;22.412;2022-10-30T10:16:33;19.50;68.70
40868;DHT22;26586;50.708;22.412;2022-10-30T10:19:25;19.50;69.00
40868;DHT22;26586;50.708;22.412;2022-10-30T10:22:01;19.50;68.70
40868;DHT22;26586;50.708;22.412;2022-10-30T10:24:34;19.50;68.60
40868;DHT22;26586;50.708;22.412;2022-10-30T10:32:26;19.50;69.30
40868;DHT22;26586;50.708;22.412;2022-10-30T10:35:55;19.50;69.40
40868;DHT22;26586;50.708;22.412;2022-10-30T10:46:57;19.50;69.60
40868;DHT22;26586;50.708;22.412;2022-10-30T10:49:30;19.50;70.30
40868;DHT22;26586;50.708;22.412;2022-10-30T10:52:14;19.50;70.70
40868;DHT22;26586;50.708;22.412;2022-10-30T10:54:44;19.50;70.40
40868;DHT22;26586;50.708;22.412;2022-10-30T10:57:36;19.50;70.60
40868;DHT22;26586;50.708;22.412;2022-10-30T11:00:06;19.50;70.50
40868;DHT22;26586;50.708;22.412;2022-10-30T11:02:39;19.50;70.60
40868;DHT22;26586;50.708;22.412;2022-10-30T11:05:15;19.50;70.50
40868;DHT22;26586;50.708;22.412;2022-10-30T11:07:49;19.60;71.20
40868;DHT22;26586;50.708;22.412;2022-10-30T11:10:17;19.60;70.50
40868;DHT22;26586;50.708;22.412;2022-10-30T11:12:44;19.50;70.60
40868;DHT22;26586;50.708;22.412;2022-10-30T11:18:14;19.50;71.30
40868;DHT22;26586;50.708;22.412;2022-10-30T11:21:04;19.60;71.10
40868;DHT22;26586;50.708;22.412;2022-10-30T11:23:43;19.60;71.30
40868;DHT22;26586;50.708;22.412;2022-10-30T11:26:30;19.60;71.80
40868;DHT22;26586;50.708;22.412;2022-10-30T11:29:10;19.60;71.30
40868;DHT22;26586;50.708;22.412;2022-10-30T11:32:00;19.60;71.40
40868;DHT22;26586;50.708;22.412;2022-10-30T11:34:31;19.60;72.30
40868;DHT22;26586;50.708;22.412;2022-10-30T11:36:57;19.60;72.90
40868;DHT22;26586;50.708;22.412;2022-10-30T11:39:29;19.60;71.80
40868;DHT22;26586;50.708;22.412;2022-10-30T11:42:13;19.60;71.70
40868;DHT22;26586;50.708;22.412;2022-10-30T11:44:45;19.60;71.00
40868;DHT22;26586;50.708;22.412;2022-10-30T11:47:34;19.60;71.40
40868;DHT22;26586;50.708;22.412;2022-10-30T11:50:17;19.60;71.10
40868;DHT22;26586;50.708;22.412;2022-10-30T11:52:44;19.60;71.20
40868;DHT22;26586;50.708;22.412;2022-10-30T11:55:30;19.70;71.10
40868;DHT22;26586;50.708;22.412;2022-10-30T12:01:04;19.60;70.80
40868;DHT22;26586;50.708;22.412;2022-10-30T12:03:37;19.60;70.60
40868;DHT22;26586;50.708;22.412;2022-10-30T12:11:44;19.70;70.70
40868;DHT22;26586;50.708;22.412;2022-10-30T12:14:25;19.70;71.00
40868;DHT22;26586;50.708;22.412;2022-10-30T12:16:55;19.70;70.90
40868;DHT22;26586;50.708;22.412;2022-10-30T12:19:23;19.70;71.10
40868;DHT22;26586;50.708;22.412;2022-10-30T12:22:08;19.70;70.70
40868;DHT22;26586;50.708;22.412;2022-10-30T12:24:53;19.70;71.10
40868;DHT22;26586;50.708;22.412;2022-10-30T12:27:19;19.70;71.10
40868;DHT22;26586;50.708;22.412;2022-10-30T12:30:06;19.70;71.60
40868;DHT22;26586;50.708;22.412;2022-10-30T12:36:30;19.70;71.70
40868;DHT22;26586;50.708;22.412;2022-10-30T12:42:00;19.80;70.80
40868;DHT22;26586;50.708;22.412;2022-10-30T12:44:38;19.80;71.40
40868;DHT22;26586;50.708;22.412;2022-10-30T12:56:13;19.80;71.00
40868;DHT22;26586;50.708;22.412;2022-10-30T12:58:49;19.80;70.40
40868;DHT22;26586;50.708;22.412;2022-10-30T13:04:40;19.80;69.80
40868;DHT22;26586;50.708;22.412;2022-10-30T13:07:18;19.80;70.00
40868;DHT22;26586;50.708;22.412;2022-10-30T13:13:21;19.80;70.10
40868;DHT22;26586;50.708;22.412;2022-10-30T13:15:59;19.80;70.60
40868;DHT22;26586;50.708;22.412;2022-10-30T13:18:28;19.80;70.10
40868;DHT22;26586;50.708;22.412;2022-10-30T13:26:54;19.80;70.40
40868;DHT22;26586;50.708;22.412;2022-10-30T13:29:46;19.90;70.20
40868;DHT22;26586;50.708;22.412;2022-10-30T13:40:44;19.90;69.80
40868;DHT22;26586;50.708;22.412;2022-10-30T13:43:50;19.90;70.10
40868;DHT22;26586;50.708;22.412;2022-10-30T13:46:47;19.80;69.90
40868;DHT22;26586;50.708;22.412;2022-10-30T13:52:05;19.90;70.70
40868;DHT22;26586;50.708;22.412;2022-10-30T13:55:17;19.80;70.70
40868;DHT22;26586;50.708;22.412;2022-10-30T13:57:58;19.90;70.70
40868;DHT22;26586;50.708;22.412;2022-10-30T14:00:53;19.90;70.50
40868;DHT22;26586;50.708;22.412;2022-10-30T14:11:47;19.90;70.50
40868;DHT22;26586;50.708;22.412;2022-10-30T14:14:47;19.90;70.50
40868;DHT22;26586;50.708;22.412;2022-10-30T14:17:15;19.90;70.50
40868;DHT22;26586;50.708;22.412;2022-10-30T14:23:12;19.90;70.60
40868;DHT22;26586;50.708;22.412;2022-10-30T14:25:40;19.90;70.70
40868;DHT22;26586;50.708;22.412;2022-10-30T14:28:27;19.90;70.80
40868;DHT22;26586;50.708;22.412;2022-10-30T14:31:32;19.90;70.80
40868;DHT22;26586;50.708;22.412;2022-10-30T14:33:59;19.90;70.30
40868;DHT22;26586;50.708;22.412;2022-10-30T14:41:46;19.90;70.40
40868;DHT22;26586;50.708;22.412;2022-10-30T14:44:50;20.00;70.40
40868;DHT22;26586;50.708;22.412;2022-10-30T15:00:40;20.00;70.20
40868;DHT22;26586;50.708;22.412;2022-10-30T15:11:45;20.10;70.00
40868;DHT22;26586;50.708;22.412;2022-10-30T15:14:34;20.10;69.80
40868;DHT22;26586;50.708;22.412;2022-10-30T15:17:23;20.00;69.50
40868;DHT22;26586;50.708;22.412;2022-10-30T15:19:51;20.10;69.20
40868;DHT22;26586;50.708;22.412;2022-10-30T15:22:20;20.10;68.60
40868;DHT22;26586;50.708;22.412;2022-10-30T15:24:50;20.00;68.90
40868;DHT22;26586;50.708;22.412;2022-10-30T15:27:21;20.00;69.40
40868;DHT22;26586;50.708;22.412;2022-10-30T15:30:18;20.10;68.90
40868;DHT22;26586;50.708;22.412;2022-10-30T15:33:02;20.00;68.90
40868;DHT22;26586;50.708;22.412;2022-10-30T15:35:29;20.10;69.20
40868;DHT22;26586;50.708;22.412;2022-10-30T15:40:23;20.10;69.60
40868;DHT22;26586;50.708;22.412;2022-10-30T15:43:11;20.00;68.70
40868;DHT22;26586;50.708;22.412;2022-10-30T15:45:57;20.00;68.50
40868;DHT22;26586;50.708;22.412;2022-10-30T15:48:31;20.00;68.30
40868;DHT22;26586;50.708;22.412;2022-10-30T15:51:03;20.00;68.80
40868;DHT22;26586;50.708;22.412;2022-10-30T15:59:05;20.00;68.70
40868;DHT22;26586;50.708;22.412;2022-10-30T16:01:33;20.00;68.90
40868;DHT22;26586;50.708;22.412;2022-10-30T16:04:01;20.00;69.20
40868;DHT22;26586;50.708;22.412;2022-10-30T16:06:52;20.00;68.80
40868;DHT22;26586;50.708;22.412;2022-10-30T16:09:19;20.00;69.30
40868;DHT22;26586;50.708;22.412;2022-10-30T16:11:46;19.90;68.80
40868;DHT22;26586;50.708;22.412;2022-10-30T16:14:13;20.00;69.10
40868;DHT22;26586;50.708;22.412;2022-10-30T16:16:40;20.00;69.10
40868;DHT22;26586;50.708;22.412;2022-10-30T16:19:16;20.00;69.30
40868;DHT22;26586;50.708;22.412;2022-10-30T16:21:47;20.00;69.20
40868;DHT22;26586;50.708;22.412;2022-10-30T16:24:15;20.00;68.70
40868;DHT22;26586;50.708;22.412;2022-10-30T16:26:42;20.00;69.00
40868;DHT22;26586;50.708;22.412;2022-10-30T16:31:40;20.00;69.00
40868;DHT22;26586;50.708;22.412;2022-10-30T16:34:10;20.00;69.70
40868;DHT22;26586;50.708;22.412;2022-10-30T16:36:39;20.00;69.60
40868;DHT22;26586;50.708;22.412;2022-10-30T16:39:07;19.90;69.90
40868;DHT22;26586;50.708;22.412;2022-10-30T16:41:57;19.90;69.80
40868;DHT22;26586;50.708;22.412;2022-10-30T16:44:29;20.00;70.00
40868;DHT22;26586;50.708;22.412;2022-10-30T16:47:21;20.00;69.80
40868;DHT22;26586;50.708;22.412;2022-10-30T16:49:54;20.00;69.60
40868;DHT22;26586;50.708;22.412;2022-10-30T16:52:26;20.00;69.40
40868;DHT22;26586;50.708;22.412;2022-10-30T16:55:03;20.00;69.90
40868;DHT22;26586;50.708;22.412;2022-10-30T16:57:57;20.00;69.70
40868;DHT22;26586;50.708;22.412;2022-10-30T17:00:49;20.00;69.00
40868;DHT22;26586;50.708;22.412;2022-10-30T17:03:19;20.00;68.70
40868;DHT22;26586;50.708;22.412;2022-10-30T17:06:35;20.00;68.70
40868;DHT22;26586;50.708;22.412;2022-10-30T17:09:24;20.00;68.30
40868;DHT22;26586;50.708;22.412;2022-10-30T17:12:17;20.00;68.10
40868;DHT22;26586;50.708;22.412;2022-10-30T17:14:51;20.00;68.10
40868;DHT22;26586;50.708;22.412;2022-10-30T17:17:24;20.00;68.10
40868;DHT22;26586;50.708;22.412;2022-10-30T17:19:58;20.00;68.10
40868;DHT22;26586;50.708;22.412;2022-10-30T17:22:26;20.00;67.90
40868;DHT22;26586;50.708;22.412;2022-10-30T17:24:53;20.00;67.90
40868;DHT22;26586;50.708;22.412;2022-10-30T17:27:46;20.00;68.20
40868;DHT22;26586;50.708;22.412;2022-10-30T17:30:40;20.00;67.90
40868;DHT22;26586;50.708;22.412;2022-10-30T17:36:09;20.00;67.80
40868;DHT22;26586;50.708;22.412;2022-10-30T17:38:54;19.90;67.80
40868;DHT22;26586;50.708;22.412;2022-10-30T17:41:20;19.90;67.80
40868;DHT22;26586;50.708;22.412;2022-10-30T17:43:51;19.90;68.40
40868;DHT22;26586;50.708;22.412;2022-10-30T17:46:18;19.90;67.70
40868;DHT22;26586;50.708;22.412;2022-10-30T17:48:44;19.90;67.80
40868;DHT22;26586;50.708;22.412;2022-10-30T17:51:28;19.90;68.20
40868;DHT22;26586;50.708;22.412;2022-10-30T17:53:57;19.90;68.20
40868;DHT22;26586;50.708;22.412;2022-10-30T17:56:28;19.90;68.30
40868;DHT22;26586;50.708;22.412;2022-10-30T17:58:56;19.90;68.30
40868;DHT22;26586;50.708;22.412;2022-10-30T18:01:24;19.90;68.50
40868;DHT22;26586;50.708;22.412;2022-10-30T18:03:52;19.90;68.10
40868;DHT22;26586;50.708;22.412;2022-10-30T18:06:26;19.90;67.80
40868;DHT22;26586;50.708;22.412;2022-10-30T18:09:11;19.90;68.00
40868;DHT22;26586;50.708;22.412;2022-10-30T18:11:37;19.90;68.00
40868;DHT22;26586;50.708;22.412;2022-10-30T18:14:22;19.90;67.90
40868;DHT22;26586;50.708;22.412;2022-10-30T18:16:48;19.90;67.90
40868;DHT22;26586;50.708;22.412;2022-10-30T18:19:32;19.90;67.80
40868;DHT22;26586;50.708;22.412;2022-10-30T18:21:59;19.90;68.70
40868;DHT22;26586;50.708;22.412;2022-10-30T18:24:25;19.90;68.50
40868;DHT22;26586;50.708;22.412;2022-10-30T18:26:51;19.90;68.50
40868;DHT22;26586;50.708;22.412;2022-10-30T18:29:19;19.90;68.80
40868;DHT22;26586;50.708;22.412;2022-10-30T18:32:04;19.90;69.00
40868;DHT22;26586;50.708;22.412;2022-10-30T18:34:30;19.90;68.90
40868;DHT22;26586;50.708;22.412;2022-10-30T18:36:57;19.90;68.50
40868;DHT22;26586;50.708;22.412;2022-10-30T18:39:23;19.90;68.20
40868;DHT22;26586;50.708;22.412;2022-10-30T18:41:50;19.90;68.40
40868;DHT22;26586;50.708;22.412;2022-10-30T18:44:17;19.90;68.70